sensor_id;sensor_type;location;lat;lon;timestamp;P1;durP1;ratioP1;P2;durP2;ratioP2
64282;SDS011;50497;50.720;-2.084;2023-02-28T00:00:33;5.75;;;2.08;;
64282;SDS011;50497;50.720;-2.084;2023-02-28T00:03:04;6.32;;;2.00;;
64282;SDS011;50497;50.720;-2.084;2023-02-28T00:05:35;8.75;;;2.05;;
64282;SDS011;50497;50.720;-2.084;2023-02-28T00:08:06;7.15;;;2.65;;
64282;SDS011;50497;50.720;-2.084;2023-02-28T00:10:36;7.28;;;2.85;;
64282;SDS011;50497;50.720;-2.084;2023-02-28T00:13:04;7.50;;;3.10;;
64282;SDS011;50497;50.720;-2.084;2023-02-28T00:15:35;7.60;;;2.35;;
64282;SDS011;50497;50.720;-2.084;2023-02-28T00:18:14;4.97;;;2.13;;
64282;SDS011;50497;50.720;-2.084;2023-02-28T00:20:42;6.53;;;2.55;;
64282;SDS011;50497;50.720;-2.084;2023-02-28T00:23:12;6.07;;;2.20;;
64282;SDS011;50497;50.720;-2.084;2023-02-28T00:25:38;6.93;;;2.70;;
64282;SDS011;50497;50.720;-2.084;2023-02-28T00:28:06;8.10;;;2.65;;
64282;SDS011;50497;50.720;-2.084;2023-02-28T00:30:35;9.00;;;3.30;;
64282;SDS011;50497;50.720;-2.084;2023-02-28T00:33:03;8.15;;;3.15;;
64282;SDS011;50497;50.720;-2.084;2023-02-28T00:35:29;6.93;;;2.60;;
64282;SDS011;50497;50.720;-2.084;2023-02-28T00:37:58;7.88;;;2.92;;
64282;SDS011;50497;50.720;-2.084;2023-02-28T00:40:29;14.07;;;6.03;;
64282;SDS011;50497;50.720;-2.084;2023-02-28T00:42:58;10.80;;;3.80;;
64282;SDS011;50497;50.720;-2.084;2023-02-28T00:45:24;7.70;;;3.22;;
64282;SDS011;50497;50.720;-2.084;2023-02-28T00:47:49;9.48;;;3.60;;
64282;SDS011;50497;50.720;-2.084;2023-02-28T00:50:18;8.93;;;3.75;;
64282;SDS011;50497;50.720;-2.084;2023-02-28T00:52:49;9.50;;;3.60;;
64282;SDS011;50497;50.720;-2.084;2023-02-28T00:55:17;11.55;;;3.65;;
64282;SDS011;50497;50.720;-2.084;2023-02-28T00:57:50;11.60;;;3.75;;
64282;SDS011;50497;50.720;-2.084;2023-02-28T01:00:22;11.20;;;3.83;;
64282;SDS011;50497;50.720;-2.084;2023-02-28T01:02:52;9.43;;;3.70;;
64282;SDS011;50497;50.720;-2.084;2023-02-28T01:05:17;10.40;;;4.55;;
64282;SDS011;50497;50.720;-2.084;2023-02-28T01:07:46;8.73;;;3.97;;
64282;SDS011;50497;50.720;-2.084;2023-02-28T01:10:21;8.32;;;3.25;;
64282;SDS011;50497;50.720;-2.084;2023-02-28T01:12:47;7.13;;;2.85;;
64282;SDS011;50497;50.720;-2.084;2023-02-28T01:15:17;6.78;;;2.60;;
64282;SDS011;50497;50.720;-2.084;2023-02-28T01:17:50;7.05;;;2.90;;
64282;SDS011;50497;50.720;-2.084;2023-02-28T01:20:18;8.40;;;3.15;;
64282;SDS011;50497;50.720;-2.084;2023-02-28T01:22:43;9.20;;;2.70;;
64282;SDS011;50497;50.720;-2.084;2023-02-28T01:25:12;6.97;;;2.88;;
64282;SDS011;50497;50.720;-2.084;2023-02-28T01:27:53;7.05;;;2.70;;
64282;SDS011;50497;50.720;-2.084;2023-02-28T01:30:31;9.18;;;2.75;;
64282;SDS011;50497;50.720;-2.084;2023-02-28T01:33:02;8.30;;;2.90;;
64282;SDS011;50497;50.720;-2.084;2023-02-28T01:35:47;7.65;;;2.47;;
64282;SDS011;50497;50.720;-2.084;2023-02-28T01:38:25;7.18;;;2.72;;
64282;SDS011;50497;50.720;-2.084;2023-02-28T01:40:56;9.82;;;2.47;;
64282;SDS011;50497;50.720;-2.084;2023-02-28T01:46:15;7.35;;;2.63;;
64282;SDS011;50497;50.720;-2.084;2023-02-28T01:48:48;7.85;;;2.50;;
64282;SDS011;50497;50.720;-2.084;2023-02-28T01:51:26;8.40;;;2.83;;
64282;SDS011;50497;50.720;-2.084;2023-02-28T01:54:09;7.45;;;2.38;;
64282;SDS011;50497;50.720;-2.084;2023-02-28T01:56:49;6.70;;;2.58;;
64282;SDS011;50497;50.720;-2.084;2023-02-28T01:59:26;6.43;;;2.40;;
64282;SDS011;50497;50.720;-2.084;2023-02-28T02:01:55;5.78;;;2.30;;
64282;SDS011;50497;50.720;-2.084;2023-02-28T02:04:37;7.20;;;2.20;;
64282;SDS011;50497;50.720;-2.084;2023-02-28T02:07:13;6.82;;;2.10;;
64282;SDS011;50497;50.720;-2.084;2023-02-28T02:09:49;9.25;;;2.60;;
64282;SDS011;50497;50.720;-2.084;2023-02-28T02:12:46;5.22;;;2.22;;
64282;SDS011;50497;50.720;-2.084;2023-02-28T02:15:33;9.38;;;2.40;;
64282;SDS011;50497;50.720;-2.084;2023-02-28T02:23:45;7.45;;;2.63;;
64282;SDS011;50497;50.720;-2.084;2023-02-28T02:40:20;5.97;;;2.15;;
64282;SDS011;50497;50.720;-2.084;2023-02-28T02:42:59;7.28;;;2.30;;
64282;SDS011;50497;50.720;-2.084;2023-02-28T02:48:14;7.32;;;2.53;;
64282;SDS011;50497;50.720;-2.084;2023-02-28T02:50:49;7.32;;;2.38;;
64282;SDS011;50497;50.720;-2.084;2023-02-28T02:53:21;5.97;;;2.08;;
64282;SDS011;50497;50.720;-2.084;2023-02-28T02:56:10;7.32;;;2.60;;
64282;SDS011;50497;50.720;-2.084;2023-02-28T02:58:38;7.18;;;2.28;;
64282;SDS011;50497;50.720;-2.084;2023-02-28T03:01:12;5.75;;;2.20;;
64282;SDS011;50497;50.720;-2.084;2023-02-28T03:03:54;6.28;;;2.30;;
64282;SDS011;50497;50.720;-2.084;2023-02-28T03:06:29;6.43;;;2.20;;
64282;SDS011;50497;50.720;-2.084;2023-02-28T03:08:58;6.30;;;2.35;;
64282;SDS011;50497;50.720;-2.084;2023-02-28T03:11:25;5.82;;;2.20;;
64282;SDS011;50497;50.720;-2.084;2023-02-28T03:17:16;7.85;;;2.60;;
64282;SDS011;50497;50.720;-2.084;2023-02-28T03:26:21;9.98;;;2.65;;
64282;SDS011;50497;50.720;-2.084;2023-02-28T03:31:14;9.23;;;2.58;;
64282;SDS011;50497;50.720;-2.084;2023-02-28T03:34:16;8.90;;;2.67;;
64282;SDS011;50497;50.720;-2.084;2023-02-28T03:36:46;7.88;;;2.70;;
64282;SDS011;50497;50.720;-2.084;2023-02-28T03:39:19;9.88;;;2.30;;
64282;SDS011;50497;50.720;-2.084;2023-02-28T03:42:10;6.85;;;2.60;;
64282;SDS011;50497;50.720;-2.084;2023-02-28T03:44:49;7.90;;;2.72;;
64282;SDS011;50497;50.720;-2.084;2023-02-28T03:47:22;8.82;;;3.10;;
64282;SDS011;50497;50.720;-2.084;2023-02-28T03:50:00;6.97;;;2.97;;
64282;SDS011;50497;50.720;-2.084;2023-02-28T03:52:37;8.73;;;3.10;;
64282;SDS011;50497;50.720;-2.084;2023-02-28T03:55:10;8.18;;;3.00;;
64282;SDS011;50497;50.720;-2.084;2023-02-28T03:58:01;7.18;;;2.83;;
64282;SDS011;50497;50.720;-2.084;2023-02-28T04:00:52;7.43;;;2.90;;
64282;SDS011;50497;50.720;-2.084;2023-02-28T04:03:34;7.85;;;3.10;;
64282;SDS011;50497;50.720;-2.084;2023-02-28T04:06:05;9.38;;;3.38;;
64282;SDS011;50497;50.720;-2.084;2023-02-28T04:08:42;10.00;;;3.05;;
64282;SDS011;50497;50.720;-2.084;2023-02-28T04:11:18;10.75;;;3.38;;
64282;SDS011;50497;50.720;-2.084;2023-02-28T04:13:46;9.18;;;3.22;;
64282;SDS011;50497;50.720;-2.084;2023-02-28T04:16:15;10.18;;;3.30;;
64282;SDS011;50497;50.720;-2.084;2023-02-28T04:18:41;7.85;;;2.92;;
64282;SDS011;50497;50.720;-2.084;2023-02-28T04:21:13;9.63;;;3.60;;
64282;SDS011;50497;50.720;-2.084;2023-02-28T04:23:45;9.18;;;3.30;;
64282;SDS011;50497;50.720;-2.084;2023-02-28T04:26:11;11.13;;;3.63;;
64282;SDS011;50497;50.720;-2.084;2023-02-28T04:28:40;12.27;;;3.65;;
64282;SDS011;50497;50.720;-2.084;2023-02-28T04:31:10;10.32;;;3.50;;
64282;SDS011;50497;50.720;-2.084;2023-02-28T04:33:43;9.93;;;3.30;;
64282;SDS011;50497;50.720;-2.084;2023-02-28T04:36:14;10.93;;;3.80;;
64282;SDS011;50497;50.720;-2.084;2023-02-28T04:38:46;8.55;;;3.40;;
64282;SDS011;50497;50.720;-2.084;2023-02-28T04:41:12;10.65;;;3.55;;
64282;SDS011;50497;50.720;-2.084;2023-02-28T04:43:45;8.85;;;3.80;;
64282;SDS011;50497;50.720;-2.084;2023-02-28T04:46:13;9.27;;;3.63;;
64282;SDS011;50497;50.720;-2.084;2023-02-28T04:48:49;5.70;;;2.60;;
64282;SDS011;50497;50.720;-2.084;2023-02-28T04:51:27;10.05;;;3.85;;
64282;SDS011;50497;50.720;-2.084;2023-02-28T04:53:56;9.75;;;3.03;;
64282;SDS011;50497;50.720;-2.084;2023-02-28T04:56:29;7.90;;;3.50;;
64282;SDS011;50497;50.720;-2.084;2023-02-28T04:59:02;6.68;;;2.60;;
64282;SDS011;50497;50.720;-2.084;2023-02-28T05:01:35;8.43;;;4.03;;
64282;SDS011;50497;50.720;-2.084;2023-02-28T05:04:08;11.70;;;5.60;;
64282;SDS011;50497;50.720;-2.084;2023-02-28T05:06:38;13.45;;;4.53;;
64282;SDS011;50497;50.720;-2.084;2023-02-28T05:09:11;11.70;;;3.55;;
64282;SDS011;50497;50.720;-2.084;2023-02-28T05:11:39;8.73;;;3.30;;
64282;SDS011;50497;50.720;-2.084;2023-02-28T05:14:13;15.82;;;5.20;;
64282;SDS011;50497;50.720;-2.084;2023-02-28T05:16:42;13.82;;;5.03;;
64282;SDS011;50497;50.720;-2.084;2023-02-28T05:19:15;12.20;;;5.10;;
64282;SDS011;50497;50.720;-2.084;2023-02-28T05:21:53;11.13;;;5.05;;
64282;SDS011;50497;50.720;-2.084;2023-02-28T05:24:25;16.23;;;5.80;;
64282;SDS011;50497;50.720;-2.084;2023-02-28T05:26:55;12.18;;;4.50;;
64282;SDS011;50497;50.720;-2.084;2023-02-28T05:29:28;15.85;;;5.93;;
64282;SDS011;50497;50.720;-2.084;2023-02-28T05:32:01;15.65;;;5.82;;
64282;SDS011;50497;50.720;-2.084;2023-02-28T05:34:30;14.27;;;5.90;;
64282;SDS011;50497;50.720;-2.084;2023-02-28T05:37:02;10.95;;;4.95;;
64282;SDS011;50497;50.720;-2.084;2023-02-28T05:39:31;14.65;;;5.60;;
64282;SDS011;50497;50.720;-2.084;2023-02-28T05:41:56;13.38;;;5.55;;
64282;SDS011;50497;50.720;-2.084;2023-02-28T05:44:22;14.40;;;5.80;;
64282;SDS011;50497;50.720;-2.084;2023-02-28T05:46:53;13.02;;;5.28;;
64282;SDS011;50497;50.720;-2.084;2023-02-28T05:49:18;12.68;;;5.40;;
64282;SDS011;50497;50.720;-2.084;2023-02-28T05:51:44;16.60;;;6.32;;
64282;SDS011;50497;50.720;-2.084;2023-02-28T05:54:09;15.45;;;4.85;;
64282;SDS011;50497;50.720;-2.084;2023-02-28T05:56:35;19.08;;;6.85;;
64282;SDS011;50497;50.720;-2.084;2023-02-28T05:59:02;15.35;;;6.50;;
64282;SDS011;50497;50.720;-2.084;2023-02-28T06:01:38;14.60;;;5.82;;
64282;SDS011;50497;50.720;-2.084;2023-02-28T06:04:06;15.98;;;6.45;;
64282;SDS011;50497;50.720;-2.084;2023-02-28T06:06:34;14.85;;;6.00;;
64282;SDS011;50497;50.720;-2.084;2023-02-28T06:09:02;16.30;;;5.78;;
64282;SDS011;50497;50.720;-2.084;2023-02-28T06:11:28;14.25;;;5.57;;
64282;SDS011;50497;50.720;-2.084;2023-02-28T06:13:57;15.25;;;6.20;;
64282;SDS011;50497;50.720;-2.084;2023-02-28T06:16:25;19.90;;;6.00;;
64282;SDS011;50497;50.720;-2.084;2023-02-28T06:18:51;14.63;;;6.22;;
64282;SDS011;50497;50.720;-2.084;2023-02-28T06:21:17;24.67;;;7.35;;
64282;SDS011;50497;50.720;-2.084;2023-02-28T06:23:44;17.30;;;5.93;;
64282;SDS011;50497;50.720;-2.084;2023-02-28T06:26:16;15.05;;;5.93;;
64282;SDS011;50497;50.720;-2.084;2023-02-28T06:28:43;14.00;;;5.60;;
64282;SDS011;50497;50.720;-2.084;2023-02-28T06:31:15;14.90;;;5.68;;
64282;SDS011;50497;50.720;-2.084;2023-02-28T06:33:43;14.63;;;6.25;;
64282;SDS011;50497;50.720;-2.084;2023-02-28T06:36:16;15.63;;;6.22;;
64282;SDS011;50497;50.720;-2.084;2023-02-28T06:38:43;14.85;;;6.35;;
64282;SDS011;50497;50.720;-2.084;2023-02-28T06:41:17;16.02;;;6.00;;
64282;SDS011;50497;50.720;-2.084;2023-02-28T06:43:49;14.23;;;6.22;;
64282;SDS011;50497;50.720;-2.084;2023-02-28T06:46:22;12.27;;;6.35;;
64282;SDS011;50497;50.720;-2.084;2023-02-28T06:48:54;16.17;;;6.75;;
64282;SDS011;50497;50.720;-2.084;2023-02-28T06:51:32;17.75;;;6.32;;
64282;SDS011;50497;50.720;-2.084;2023-02-28T06:54:00;15.63;;;6.68;;
64282;SDS011;50497;50.720;-2.084;2023-02-28T06:56:29;16.85;;;6.53;;
64282;SDS011;50497;50.720;-2.084;2023-02-28T06:58:59;15.68;;;6.20;;
64282;SDS011;50497;50.720;-2.084;2023-02-28T07:01:29;18.33;;;7.35;;
64282;SDS011;50497;50.720;-2.084;2023-02-28T07:03:57;17.85;;;6.20;;
64282;SDS011;50497;50.720;-2.084;2023-02-28T07:06:35;26.52;;;8.85;;
64282;SDS011;50497;50.720;-2.084;2023-02-28T07:09:01;22.30;;;8.57;;
64282;SDS011;50497;50.720;-2.084;2023-02-28T07:11:30;22.25;;;8.48;;
64282;SDS011;50497;50.720;-2.084;2023-02-28T07:13:56;17.25;;;7.10;;
64282;SDS011;50497;50.720;-2.084;2023-02-28T07:16:25;15.85;;;6.75;;
64282;SDS011;50497;50.720;-2.084;2023-02-28T07:18:55;19.30;;;7.20;;
64282;SDS011;50497;50.720;-2.084;2023-02-28T07:21:25;25.02;;;10.57;;
64282;SDS011;50497;50.720;-2.084;2023-02-28T07:24:03;14.75;;;5.82;;
64282;SDS011;50497;50.720;-2.084;2023-02-28T07:26:41;25.88;;;9.90;;
64282;SDS011;50497;50.720;-2.084;2023-02-28T07:29:20;15.23;;;6.13;;
64282;SDS011;50497;50.720;-2.084;2023-02-28T07:31:52;15.13;;;5.82;;
64282;SDS011;50497;50.720;-2.084;2023-02-28T07:34:25;13.30;;;5.38;;
64282;SDS011;50497;50.720;-2.084;2023-02-28T07:36:54;12.80;;;4.85;;
64282;SDS011;50497;50.720;-2.084;2023-02-28T07:39:28;10.95;;;4.13;;
64282;SDS011;50497;50.720;-2.084;2023-02-28T07:41:54;13.63;;;4.63;;
64282;SDS011;50497;50.720;-2.084;2023-02-28T07:44:24;13.00;;;5.00;;
64282;SDS011;50497;50.720;-2.084;2023-02-28T07:46:58;13.98;;;5.55;;
64282;SDS011;50497;50.720;-2.084;2023-02-28T07:49:28;12.93;;;4.57;;
64282;SDS011;50497;50.720;-2.084;2023-02-28T07:51:53;13.38;;;4.88;;
64282;SDS011;50497;50.720;-2.084;2023-02-28T07:54:19;14.65;;;5.03;;
64282;SDS011;50497;50.720;-2.084;2023-02-28T07:56:54;10.82;;;3.67;;
64282;SDS011;50497;50.720;-2.084;2023-02-28T07:59:23;11.85;;;4.82;;
64282;SDS011;50497;50.720;-2.084;2023-02-28T08:01:52;15.07;;;5.18;;
64282;SDS011;50497;50.720;-2.084;2023-02-28T08:04:18;12.95;;;5.53;;
64282;SDS011;50497;50.720;-2.084;2023-02-28T08:06:47;14.30;;;6.03;;
64282;SDS011;50497;50.720;-2.084;2023-02-28T08:09:16;11.90;;;4.65;;
64282;SDS011;50497;50.720;-2.084;2023-02-28T08:11:44;16.45;;;6.88;;
64282;SDS011;50497;50.720;-2.084;2023-02-28T08:14:19;7.50;;;2.33;;
64282;SDS011;50497;50.720;-2.084;2023-02-28T08:16:48;8.73;;;3.15;;
64282;SDS011;50497;50.720;-2.084;2023-02-28T08:19:17;6.05;;;2.03;;
64282;SDS011;50497;50.720;-2.084;2023-02-28T08:21:43;11.25;;;3.80;;
64282;SDS011;50497;50.720;-2.084;2023-02-28T08:24:08;10.73;;;2.90;;
64282;SDS011;50497;50.720;-2.084;2023-02-28T08:26:34;9.88;;;4.03;;
64282;SDS011;50497;50.720;-2.084;2023-02-28T08:29:03;5.95;;;2.67;;
64282;SDS011;50497;50.720;-2.084;2023-02-28T08:31:32;9.43;;;3.35;;
64282;SDS011;50497;50.720;-2.084;2023-02-28T08:34:04;8.40;;;2.80;;
64282;SDS011;50497;50.720;-2.084;2023-02-28T08:36:41;10.27;;;3.08;;
64282;SDS011;50497;50.720;-2.084;2023-02-28T08:39:14;8.32;;;3.53;;
64282;SDS011;50497;50.720;-2.084;2023-02-28T08:41:50;7.15;;;2.60;;
64282;SDS011;50497;50.720;-2.084;2023-02-28T08:44:22;9.05;;;3.03;;
64282;SDS011;50497;50.720;-2.084;2023-02-28T08:46:52;7.35;;;2.85;;
64282;SDS011;50497;50.720;-2.084;2023-02-28T08:49:18;7.20;;;2.63;;
64282;SDS011;50497;50.720;-2.084;2023-02-28T08:51:52;6.43;;;2.50;;
64282;SDS011;50497;50.720;-2.084;2023-02-28T08:54:23;5.50;;;1.77;;
64282;SDS011;50497;50.720;-2.084;2023-02-28T08:56:59;8.77;;;2.88;;
64282;SDS011;50497;50.720;-2.084;2023-02-28T08:59:34;9.75;;;2.67;;
64282;SDS011;50497;50.720;-2.084;2023-02-28T09:02:08;7.57;;;2.58;;
64282;SDS011;50497;50.720;-2.084;2023-02-28T09:04:37;7.03;;;2.05;;
64282;SDS011;50497;50.720;-2.084;2023-02-28T09:07:03;4.88;;;1.90;;
64282;SDS011;50497;50.720;-2.084;2023-02-28T09:09:32;6.45;;;2.78;;
64282;SDS011;50497;50.720;-2.084;2023-02-28T09:11:58;6.85;;;2.38;;
64282;SDS011;50497;50.720;-2.084;2023-02-28T09:14:31;3.92;;;1.70;;
64282;SDS011;50497;50.720;-2.084;2023-02-28T09:17:03;7.53;;;2.47;;
64282;SDS011;50497;50.720;-2.084;2023-02-28T09:19:38;5.47;;;2.30;;
64282;SDS011;50497;50.720;-2.084;2023-02-28T09:22:07;6.22;;;2.50;;
64282;SDS011;50497;50.720;-2.084;2023-02-28T09:27:04;5.43;;;1.90;;
64282;SDS011;50497;50.720;-2.084;2023-02-28T09:29:34;6.13;;;2.13;;
64282;SDS011;50497;50.720;-2.084;2023-02-28T09:32:03;8.23;;;2.45;;
64282;SDS011;50497;50.720;-2.084;2023-02-28T09:34:33;6.15;;;2.13;;
64282;SDS011;50497;50.720;-2.084;2023-02-28T09:37:05;4.10;;;1.80;;
64282;SDS011;50497;50.720;-2.084;2023-02-28T09:39:35;4.20;;;1.70;;
64282;SDS011;50497;50.720;-2.084;2023-02-28T09:42:03;5.10;;;2.13;;
64282;SDS011;50497;50.720;-2.084;2023-02-28T09:44:40;6.60;;;2.60;;
64282;SDS011;50497;50.720;-2.084;2023-02-28T09:47:18;4.40;;;1.70;;
64282;SDS011;50497;50.720;-2.084;2023-02-28T09:49:53;7.07;;;2.08;;
64282;SDS011;50497;50.720;-2.084;2023-02-28T09:52:28;4.15;;;1.55;;
64282;SDS011;50497;50.720;-2.084;2023-02-28T09:54:55;5.57;;;2.28;;
64282;SDS011;50497;50.720;-2.084;2023-02-28T10:00:13;15.48;;;5.63;;
64282;SDS011;50497;50.720;-2.084;2023-02-28T10:02:58;13.57;;;5.88;;
64282;SDS011;50497;50.720;-2.084;2023-02-28T10:05:34;11.82;;;4.95;;
64282;SDS011;50497;50.720;-2.084;2023-02-28T10:08:11;12.00;;;4.68;;
64282;SDS011;50497;50.720;-2.084;2023-02-28T10:10:42;14.93;;;7.13;;
64282;SDS011;50497;50.720;-2.084;2023-02-28T10:13:26;13.52;;;5.78;;
64282;SDS011;50497;50.720;-2.084;2023-02-28T10:15:56;9.25;;;3.97;;
64282;SDS011;50497;50.720;-2.084;2023-02-28T10:18:48;7.45;;;3.58;;
64282;SDS011;50497;50.720;-2.084;2023-02-28T10:21:41;8.98;;;3.35;;
64282;SDS011;50497;50.720;-2.084;2023-02-28T10:24:33;7.60;;;3.58;;
64282;SDS011;50497;50.720;-2.084;2023-02-28T10:27:18;11.32;;;5.70;;
64282;SDS011;50497;50.720;-2.084;2023-02-28T10:32:12;8.30;;;3.70;;
64282;SDS011;50497;50.720;-2.084;2023-02-28T10:34:52;8.60;;;4.32;;
64282;SDS011;50497;50.720;-2.084;2023-02-28T10:37:27;11.05;;;5.40;;
64282;SDS011;50497;50.720;-2.084;2023-02-28T10:39:56;6.50;;;2.75;;
64282;SDS011;50497;50.720;-2.084;2023-02-28T10:45:06;7.30;;;2.72;;
64282;SDS011;50497;50.720;-2.084;2023-02-28T10:50:27;8.05;;;2.90;;
64282;SDS011;50497;50.720;-2.084;2023-02-28T10:58:53;25.85;;;12.10;;
64282;SDS011;50497;50.720;-2.084;2023-02-28T11:01:27;16.45;;;7.53;;
64282;SDS011;50497;50.720;-2.084;2023-02-28T11:06:48;34.97;;;16.35;;
64282;SDS011;50497;50.720;-2.084;2023-02-28T11:09:31;10.80;;;5.22;;
64282;SDS011;50497;50.720;-2.084;2023-02-28T11:12:00;23.38;;;13.88;;
64282;SDS011;50497;50.720;-2.084;2023-02-28T11:17:32;6.65;;;2.13;;
64282;SDS011;50497;50.720;-2.084;2023-02-28T11:20:05;6.45;;;1.80;;
64282;SDS011;50497;50.720;-2.084;2023-02-28T11:22:36;3.58;;;1.48;;
64282;SDS011;50497;50.720;-2.084;2023-02-28T11:25:15;3.92;;;1.58;;
64282;SDS011;50497;50.720;-2.084;2023-02-28T11:27:48;5.57;;;1.52;;
64282;SDS011;50497;50.720;-2.084;2023-02-28T11:30:30;5.95;;;1.60;;
64282;SDS011;50497;50.720;-2.084;2023-02-28T11:32:55;4.65;;;1.52;;
64282;SDS011;50497;50.720;-2.084;2023-02-28T11:35:24;4.47;;;1.70;;
64282;SDS011;50497;50.720;-2.084;2023-02-28T11:37:54;4.50;;;1.40;;
64282;SDS011;50497;50.720;-2.084;2023-02-28T11:43:18;3.40;;;1.50;;
64282;SDS011;50497;50.720;-2.084;2023-02-28T11:51:15;4.53;;;1.88;;
64282;SDS011;50497;50.720;-2.084;2023-02-28T11:58:52;3.38;;;1.45;;
64282;SDS011;50497;50.720;-2.084;2023-02-28T12:04:22;4.18;;;1.90;;
64282;SDS011;50497;50.720;-2.084;2023-02-28T12:12:55;3.47;;;1.40;;
64282;SDS011;50497;50.720;-2.084;2023-02-28T12:28:54;3.60;;;1.40;;
64282;SDS011;50497;50.720;-2.084;2023-02-28T12:31:28;4.30;;;1.60;;
64282;SDS011;50497;50.720;-2.084;2023-02-28T12:34:06;3.97;;;1.58;;
64282;SDS011;50497;50.720;-2.084;2023-02-28T12:36:44;4.43;;;1.40;;
64282;SDS011;50497;50.720;-2.084;2023-02-28T12:46:51;2.97;;;1.33;;
64282;SDS011;50497;50.720;-2.084;2023-02-28T12:49:34;2.20;;;1.10;;
64282;SDS011;50497;50.720;-2.084;2023-02-28T12:52:08;4.45;;;1.50;;
64282;SDS011;50497;50.720;-2.084;2023-02-28T12:54:48;3.47;;;1.40;;
64282;SDS011;50497;50.720;-2.084;2023-02-28T12:57:36;4.32;;;1.67;;
64282;SDS011;50497;50.720;-2.084;2023-02-28T13:00:28;3.90;;;1.55;;
64282;SDS011;50497;50.720;-2.084;2023-02-28T13:03:29;7.78;;;2.10;;
64282;SDS011;50497;50.720;-2.084;2023-02-28T13:09:08;4.55;;;1.40;;
64282;SDS011;50497;50.720;-2.084;2023-02-28T13:11:45;5.43;;;1.95;;
64282;SDS011;50497;50.720;-2.084;2023-02-28T13:19:45;5.00;;;1.92;;
64282;SDS011;50497;50.720;-2.084;2023-02-28T13:24:53;4.43;;;1.70;;
64282;SDS011;50497;50.720;-2.084;2023-02-28T13:27:38;4.03;;;1.67;;
64282;SDS011;50497;50.720;-2.084;2023-02-28T13:35:45;3.67;;;1.50;;
64282;SDS011;50497;50.720;-2.084;2023-02-28T13:38:32;10.93;;;4.82;;
64282;SDS011;50497;50.720;-2.084;2023-02-28T13:44:00;5.00;;;1.52;;
64282;SDS011;50497;50.720;-2.084;2023-02-28T13:46:35;4.60;;;1.70;;
64282;SDS011;50497;50.720;-2.084;2023-02-28T13:49:26;6.45;;;2.40;;
64282;SDS011;50497;50.720;-2.084;2023-02-28T14:06:54;6.50;;;2.58;;
64282;SDS011;50497;50.720;-2.084;2023-02-28T14:09:31;8.13;;;2.63;;
64282;SDS011;50497;50.720;-2.084;2023-02-28T14:12:00;5.78;;;2.47;;
64282;SDS011;50497;50.720;-2.084;2023-02-28T14:15:01;6.60;;;2.67;;
64282;SDS011;50497;50.720;-2.084;2023-02-28T14:17:35;5.75;;;2.63;;
64282;SDS011;50497;50.720;-2.084;2023-02-28T14:20:02;6.38;;;2.40;;
64282;SDS011;50497;50.720;-2.084;2023-02-28T14:25:37;7.75;;;2.70;;
64282;SDS011;50497;50.720;-2.084;2023-02-28T14:28:45;7.40;;;3.20;;
64282;SDS011;50497;50.720;-2.084;2023-02-28T14:31:28;8.07;;;3.28;;
64282;SDS011;50497;50.720;-2.084;2023-02-28T14:36:37;6.57;;;2.58;;
64282;SDS011;50497;50.720;-2.084;2023-02-28T14:39:16;6.72;;;2.60;;
64282;SDS011;50497;50.720;-2.084;2023-02-28T14:41:49;6.97;;;2.75;;
64282;SDS011;50497;50.720;-2.084;2023-02-28T14:44:21;7.35;;;2.80;;
64282;SDS011;50497;50.720;-2.084;2023-02-28T14:46:58;4.75;;;2.15;;
64282;SDS011;50497;50.720;-2.084;2023-02-28T14:49:31;7.20;;;2.75;;
64282;SDS011;50497;50.720;-2.084;2023-02-28T14:54:58;7.18;;;2.65;;
64282;SDS011;50497;50.720;-2.084;2023-02-28T14:57:56;7.45;;;2.65;;
64282;SDS011;50497;50.720;-2.084;2023-02-28T15:00:34;7.93;;;3.67;;
64282;SDS011;50497;50.720;-2.084;2023-02-28T15:03:17;6.22;;;2.97;;
64282;SDS011;50497;50.720;-2.084;2023-02-28T15:05:51;8.38;;;3.70;;
64282;SDS011;50497;50.720;-2.084;2023-02-28T15:08:22;7.15;;;2.80;;
64282;SDS011;50497;50.720;-2.084;2023-02-28T15:13:20;6.90;;;3.17;;
64282;SDS011;50497;50.720;-2.084;2023-02-28T15:15:58;9.45;;;3.40;;
64282;SDS011;50497;50.720;-2.084;2023-02-28T15:20:55;13.32;;;4.72;;
64282;SDS011;50497;50.720;-2.084;2023-02-28T15:23:26;10.77;;;5.00;;
64282;SDS011;50497;50.720;-2.084;2023-02-28T15:25:54;7.75;;;3.05;;
64282;SDS011;50497;50.720;-2.084;2023-02-28T15:28:28;10.27;;;4.63;;
64282;SDS011;50497;50.720;-2.084;2023-02-28T15:31:03;7.78;;;2.63;;
64282;SDS011;50497;50.720;-2.084;2023-02-28T15:33:57;6.53;;;2.50;;
64282;SDS011;50497;50.720;-2.084;2023-02-28T15:36:32;7.03;;;2.78;;
64282;SDS011;50497;50.720;-2.084;2023-02-28T15:39:16;6.75;;;2.85;;
64282;SDS011;50497;50.720;-2.084;2023-02-28T15:42:11;6.65;;;2.60;;
64282;SDS011;50497;50.720;-2.084;2023-02-28T15:44:37;7.22;;;3.08;;
64282;SDS011;50497;50.720;-2.084;2023-02-28T15:47:19;6.13;;;2.13;;
64282;SDS011;50497;50.720;-2.084;2023-02-28T15:49:56;6.70;;;2.90;;
64282;SDS011;50497;50.720;-2.084;2023-02-28T15:52:33;6.00;;;2.53;;
64282;SDS011;50497;50.720;-2.084;2023-02-28T15:55:16;6.28;;;2.58;;
64282;SDS011;50497;50.720;-2.084;2023-02-28T15:57:55;6.75;;;2.50;;
64282;SDS011;50497;50.720;-2.084;2023-02-28T16:00:30;10.70;;;3.22;;
64282;SDS011;50497;50.720;-2.084;2023-02-28T16:03:21;5.95;;;2.45;;
64282;SDS011;50497;50.720;-2.084;2023-02-28T16:09:15;9.00;;;3.95;;
64282;SDS011;50497;50.720;-2.084;2023-02-28T16:11:44;9.88;;;3.50;;
64282;SDS011;50497;50.720;-2.084;2023-02-28T16:14:22;6.20;;;2.55;;
64282;SDS011;50497;50.720;-2.084;2023-02-28T16:16:51;5.78;;;2.50;;
64282;SDS011;50497;50.720;-2.084;2023-02-28T16:19:20;6.32;;;2.22;;
64282;SDS011;50497;50.720;-2.084;2023-02-28T16:21:56;8.30;;;3.55;;
64282;SDS011;50497;50.720;-2.084;2023-02-28T16:24:31;6.03;;;2.47;;
64282;SDS011;50497;50.720;-2.084;2023-02-28T16:27:00;7.85;;;2.75;;
64282;SDS011;50497;50.720;-2.084;2023-02-28T16:29:34;12.40;;;4.22;;
64282;SDS011;50497;50.720;-2.084;2023-02-28T16:32:04;7.30;;;2.35;;
64282;SDS011;50497;50.720;-2.084;2023-02-28T16:34:35;9.88;;;3.28;;
64282;SDS011;50497;50.720;-2.084;2023-02-28T16:37:01;9.15;;;3.33;;
64282;SDS011;50497;50.720;-2.084;2023-02-28T16:39:26;7.82;;;2.78;;
64282;SDS011;50497;50.720;-2.084;2023-02-28T16:41:59;7.72;;;3.65;;
64282;SDS011;50497;50.720;-2.084;2023-02-28T16:44:31;7.85;;;3.60;;
64282;SDS011;50497;50.720;-2.084;2023-02-28T16:47:09;7.55;;;3.20;;
64282;SDS011;50497;50.720;-2.084;2023-02-28T16:49:36;9.32;;;3.78;;
64282;SDS011;50497;50.720;-2.084;2023-02-28T16:52:10;7.80;;;3.42;;
64282;SDS011;50497;50.720;-2.084;2023-02-28T16:54:40;8.65;;;3.05;;
64282;SDS011;50497;50.720;-2.084;2023-02-28T16:57:18;10.13;;;3.35;;
64282;SDS011;50497;50.720;-2.084;2023-02-28T16:59:50;8.20;;;4.30;;
64282;SDS011;50497;50.720;-2.084;2023-02-28T17:02:20;11.35;;;4.38;;
64282;SDS011;50497;50.720;-2.084;2023-02-28T17:04:55;7.43;;;3.25;;
64282;SDS011;50497;50.720;-2.084;2023-02-28T17:07:24;8.15;;;3.38;;
64282;SDS011;50497;50.720;-2.084;2023-02-28T17:09:53;8.10;;;3.47;;
64282;SDS011;50497;50.720;-2.084;2023-02-28T17:12:19;8.10;;;3.47;;
64282;SDS011;50497;50.720;-2.084;2023-02-28T17:14:49;9.13;;;3.40;;
64282;SDS011;50497;50.720;-2.084;2023-02-28T17:17:17;8.77;;;4.25;;
64282;SDS011;50497;50.720;-2.084;2023-02-28T17:19:47;8.65;;;3.60;;
64282;SDS011;50497;50.720;-2.084;2023-02-28T17:22:15;10.98;;;5.15;;
64282;SDS011;50497;50.720;-2.084;2023-02-28T17:24:48;11.30;;;5.28;;
64282;SDS011;50497;50.720;-2.084;2023-02-28T17:27:25;10.57;;;4.43;;
64282;SDS011;50497;50.720;-2.084;2023-02-28T17:29:59;15.30;;;5.97;;
64282;SDS011;50497;50.720;-2.084;2023-02-28T17:32:30;10.48;;;4.75;;
64282;SDS011;50497;50.720;-2.084;2023-02-28T17:35:01;10.05;;;5.05;;
64282;SDS011;50497;50.720;-2.084;2023-02-28T17:37:35;17.60;;;8.88;;
64282;SDS011;50497;50.720;-2.084;2023-02-28T17:40:20;9.75;;;4.57;;
64282;SDS011;50497;50.720;-2.084;2023-02-28T17:42:57;6.78;;;3.70;;